LEMS weather

Manresa Airport
Manresa, Catalonia, Spain

Public forecast

Using degrees Celsius for public forecast. Weather courtesy of forecast.io.

METAR (pilot weather report)

Closest report is Sabadell Airport, 18.3 nm (33.9 km) SE. Retrieved 2019/09/15 06:30 UTC (24 seconds ago):

LELL 150630Z VRB02KT CAVOK 17/12 Q1023

TAF (pilot weather forecast)

Closest forecast is Sabadell Airport, 18.3 nm (33.9 km) SE. Retrieved 2019/09/15 03:30 UTC (3 hours ago):

TAF LELL 150200Z 1503/1603 VRB04KT 9999 FEW030 TX29/1512Z TN17/1506Z BECMG 1506/1508 06010KT BECMG 1509/1511 11012KT BECMG 1517/1519 VRB04KT